sensor_id;sensor_type;location;lat;lon;timestamp;P1;durP1;ratioP1;P2;durP2;ratioP2
68858;SDS011;55864;49.238;8.092;2022-11-15T00:01:02;13.27;;;5.87;;
68858;SDS011;55864;49.238;8.092;2022-11-15T00:03:27;15.75;;;6.93;;
68858;SDS011;55864;49.238;8.092;2022-11-15T00:05:46;17.48;;;8.70;;
68858;SDS011;55864;49.238;8.092;2022-11-15T00:08:05;18.57;;;8.03;;
68858;SDS011;55864;49.238;8.092;2022-11-15T00:10:25;16.63;;;7.57;;
68858;SDS011;55864;49.238;8.092;2022-11-15T00:12:45;14.37;;;7.23;;
68858;SDS011;55864;49.238;8.092;2022-11-15T00:15:04;18.35;;;8.30;;
68858;SDS011;55864;49.238;8.092;2022-11-15T00:17:23;13.90;;;6.53;;
68858;SDS011;55864;49.238;8.092;2022-11-15T00:19:44;12.85;;;5.78;;
68858;SDS011;55864;49.238;8.092;2022-11-15T00:22:03;13.13;;;6.37;;
68858;SDS011;55864;49.238;8.092;2022-11-15T00:24:22;14.40;;;6.67;;
68858;SDS011;55864;49.238;8.092;2022-11-15T00:26:41;11.37;;;5.90;;
68858;SDS011;55864;49.238;8.092;2022-11-15T00:29:00;10.87;;;5.57;;
68858;SDS011;55864;49.238;8.092;2022-11-15T00:31:19;11.93;;;5.83;;
68858;SDS011;55864;49.238;8.092;2022-11-15T00:33:38;13.60;;;6.27;;
68858;SDS011;55864;49.238;8.092;2022-11-15T00:36:01;14.97;;;6.17;;
68858;SDS011;55864;49.238;8.092;2022-11-15T00:40:40;13.07;;;5.30;;
68858;SDS011;55864;49.238;8.092;2022-11-15T00:42:59;10.23;;;5.15;;
68858;SDS011;55864;49.238;8.092;2022-11-15T00:45:18;10.77;;;5.20;;
68858;SDS011;55864;49.238;8.092;2022-11-15T00:47:37;11.03;;;4.80;;
68858;SDS011;55864;49.238;8.092;2022-11-15T00:49:56;12.60;;;5.13;;
68858;SDS011;55864;49.238;8.092;2022-11-15T00:52:18;11.02;;;5.13;;
68858;SDS011;55864;49.238;8.092;2022-11-15T00:54:37;9.90;;;4.93;;
68858;SDS011;55864;49.238;8.092;2022-11-15T00:56:56;9.47;;;4.97;;
68858;SDS011;55864;49.238;8.092;2022-11-15T00:59:15;11.13;;;5.93;;
68858;SDS011;55864;49.238;8.092;2022-11-15T01:01:34;11.35;;;5.40;;
68858;SDS011;55864;49.238;8.092;2022-11-15T01:03:52;10.55;;;5.40;;
68858;SDS011;55864;49.238;8.092;2022-11-15T01:06:11;13.93;;;6.40;;
68858;SDS011;55864;49.238;8.092;2022-11-15T01:08:31;12.00;;;5.13;;
68858;SDS011;55864;49.238;8.092;2022-11-15T01:10:50;10.55;;;5.18;;
68858;SDS011;55864;49.238;8.092;2022-11-15T01:13:09;10.73;;;4.72;;
68858;SDS011;55864;49.238;8.092;2022-11-15T01:15:28;11.15;;;4.65;;
68858;SDS011;55864;49.238;8.092;2022-11-15T01:17:47;11.55;;;5.30;;
68858;SDS011;55864;49.238;8.092;2022-11-15T01:20:07;9.95;;;4.32;;
68858;SDS011;55864;49.238;8.092;2022-11-15T01:22:27;8.77;;;4.60;;
68858;SDS011;55864;49.238;8.092;2022-11-15T01:24:47;8.73;;;4.57;;
68858;SDS011;55864;49.238;8.092;2022-11-15T01:27:08;11.45;;;4.47;;
68858;SDS011;55864;49.238;8.092;2022-11-15T01:29:27;10.00;;;4.90;;
68858;SDS011;55864;49.238;8.092;2022-11-15T01:31:46;10.80;;;4.70;;
68858;SDS011;55864;49.238;8.092;2022-11-15T01:34:05;10.13;;;5.07;;
68858;SDS011;55864;49.238;8.092;2022-11-15T01:36:24;11.50;;;4.93;;
68858;SDS011;55864;49.238;8.092;2022-11-15T01:38:43;11.00;;;4.55;;
68858;SDS011;55864;49.238;8.092;2022-11-15T01:41:04;10.60;;;4.22;;
68858;SDS011;55864;49.238;8.092;2022-11-15T01:43:24;9.85;;;4.68;;
68858;SDS011;55864;49.238;8.092;2022-11-15T01:45:44;10.57;;;4.45;;
68858;SDS011;55864;49.238;8.092;2022-11-15T01:48:09;9.63;;;4.20;;
68858;SDS011;55864;49.238;8.092;2022-11-15T01:50:30;9.15;;;4.50;;
68858;SDS011;55864;49.238;8.092;2022-11-15T01:52:50;11.30;;;4.90;;
68858;SDS011;55864;49.238;8.092;2022-11-15T01:55:11;10.48;;;5.28;;
68858;SDS011;55864;49.238;8.092;2022-11-15T01:59:54;11.27;;;5.00;;
68858;SDS011;55864;49.238;8.092;2022-11-15T02:02:15;12.98;;;4.75;;
68858;SDS011;55864;49.238;8.092;2022-11-15T02:04:36;10.25;;;4.45;;
68858;SDS011;55864;49.238;8.092;2022-11-15T02:06:58;9.65;;;4.72;;
68858;SDS011;55864;49.238;8.092;2022-11-15T02:09:20;9.57;;;4.38;;
68858;SDS011;55864;49.238;8.092;2022-11-15T02:11:39;11.23;;;5.00;;
68858;SDS011;55864;49.238;8.092;2022-11-15T02:14:00;10.17;;;4.63;;
68858;SDS011;55864;49.238;8.092;2022-11-15T02:16:35;10.43;;;4.35;;
68858;SDS011;55864;49.238;8.092;2022-11-15T02:19:02;8.23;;;4.35;;
68858;SDS011;55864;49.238;8.092;2022-11-15T02:21:36;8.52;;;4.60;;
68858;SDS011;55864;49.238;8.092;2022-11-15T02:26:54;8.90;;;3.73;;
68858;SDS011;55864;49.238;8.092;2022-11-15T02:29:37;7.28;;;3.60;;
68858;SDS011;55864;49.238;8.092;2022-11-15T02:32:11;7.43;;;3.08;;
68858;SDS011;55864;49.238;8.092;2022-11-15T02:34:40;6.70;;;3.10;;
68858;SDS011;55864;49.238;8.092;2022-11-15T02:37:10;7.82;;;3.30;;
68858;SDS011;55864;49.238;8.092;2022-11-15T02:39:35;7.30;;;3.10;;
68858;SDS011;55864;49.238;8.092;2022-11-15T02:42:02;7.65;;;3.47;;
68858;SDS011;55864;49.238;8.092;2022-11-15T02:44:26;9.02;;;3.65;;
68858;SDS011;55864;49.238;8.092;2022-11-15T02:46:51;8.02;;;4.00;;
68858;SDS011;55864;49.238;8.092;2022-11-15T02:49:14;11.63;;;5.22;;
68858;SDS011;55864;49.238;8.092;2022-11-15T02:51:34;10.57;;;4.88;;
68858;SDS011;55864;49.238;8.092;2022-11-15T02:53:53;10.70;;;5.10;;
68858;SDS011;55864;49.238;8.092;2022-11-15T02:56:12;13.57;;;6.43;;
68858;SDS011;55864;49.238;8.092;2022-11-15T02:58:37;14.35;;;6.20;;
68858;SDS011;55864;49.238;8.092;2022-11-15T03:01:22;11.68;;;6.35;;
68858;SDS011;55864;49.238;8.092;2022-11-15T03:03:59;12.43;;;6.60;;
68858;SDS011;55864;49.238;8.092;2022-11-15T03:06:26;14.10;;;6.50;;
68858;SDS011;55864;49.238;8.092;2022-11-15T03:08:54;14.73;;;6.63;;
68858;SDS011;55864;49.238;8.092;2022-11-15T03:11:21;12.82;;;6.80;;
68858;SDS011;55864;49.238;8.092;2022-11-15T03:13:43;12.45;;;6.18;;
68858;SDS011;55864;49.238;8.092;2022-11-15T03:16:13;15.57;;;6.75;;
68858;SDS011;55864;49.238;8.092;2022-11-15T03:18:37;16.52;;;7.28;;
68858;SDS011;55864;49.238;8.092;2022-11-15T03:20:59;12.65;;;6.63;;
68858;SDS011;55864;49.238;8.092;2022-11-15T03:23:24;12.35;;;6.80;;
68858;SDS011;55864;49.238;8.092;2022-11-15T03:25:45;12.05;;;6.97;;
68858;SDS011;55864;49.238;8.092;2022-11-15T03:28:06;12.65;;;6.57;;
68858;SDS011;55864;49.238;8.092;2022-11-15T03:30:31;13.03;;;6.63;;
68858;SDS011;55864;49.238;8.092;2022-11-15T03:32:53;16.92;;;6.97;;
68858;SDS011;55864;49.238;8.092;2022-11-15T03:35:15;12.23;;;6.90;;
68858;SDS011;55864;49.238;8.092;2022-11-15T03:37:53;11.73;;;6.32;;
68858;SDS011;55864;49.238;8.092;2022-11-15T03:40:20;13.73;;;7.10;;
68858;SDS011;55864;49.238;8.092;2022-11-15T03:42:44;14.65;;;7.47;;
68858;SDS011;55864;49.238;8.092;2022-11-15T03:45:09;12.55;;;6.93;;
68858;SDS011;55864;49.238;8.092;2022-11-15T03:47:34;14.80;;;6.70;;
68858;SDS011;55864;49.238;8.092;2022-11-15T03:49:58;14.30;;;7.38;;
68858;SDS011;55864;49.238;8.092;2022-11-15T03:52:21;13.68;;;7.18;;
68858;SDS011;55864;49.238;8.092;2022-11-15T03:54:47;13.57;;;7.27;;
68858;SDS011;55864;49.238;8.092;2022-11-15T03:57:09;12.02;;;6.90;;
68858;SDS011;55864;49.238;8.092;2022-11-15T03:59:28;12.40;;;6.65;;
68858;SDS011;55864;49.238;8.092;2022-11-15T04:01:47;15.30;;;7.55;;
68858;SDS011;55864;49.238;8.092;2022-11-15T04:04:06;11.02;;;6.47;;
68858;SDS011;55864;49.238;8.092;2022-11-15T04:06:25;15.07;;;6.88;;
68858;SDS011;55864;49.238;8.092;2022-11-15T04:08:44;13.63;;;6.68;;
68858;SDS011;55864;49.238;8.092;2022-11-15T04:11:03;11.80;;;6.40;;
68858;SDS011;55864;49.238;8.092;2022-11-15T04:13:23;14.35;;;7.28;;
68858;SDS011;55864;49.238;8.092;2022-11-15T04:15:42;15.17;;;6.73;;
68858;SDS011;55864;49.238;8.092;2022-11-15T04:18:01;15.30;;;7.73;;
68858;SDS011;55864;49.238;8.092;2022-11-15T04:20:21;12.00;;;6.85;;
68858;SDS011;55864;49.238;8.092;2022-11-15T04:22:41;13.18;;;7.20;;
68858;SDS011;55864;49.238;8.092;2022-11-15T04:25:00;12.27;;;6.60;;
68858;SDS011;55864;49.238;8.092;2022-11-15T04:27:19;12.48;;;7.30;;
68858;SDS011;55864;49.238;8.092;2022-11-15T04:29:40;13.95;;;7.00;;
68858;SDS011;55864;49.238;8.092;2022-11-15T04:31:58;12.00;;;6.55;;
68858;SDS011;55864;49.238;8.092;2022-11-15T04:34:18;14.52;;;7.07;;
68858;SDS011;55864;49.238;8.092;2022-11-15T04:36:41;13.20;;;6.60;;
68858;SDS011;55864;49.238;8.092;2022-11-15T04:39:00;13.53;;;7.20;;
68858;SDS011;55864;49.238;8.092;2022-11-15T04:41:19;14.20;;;6.78;;
68858;SDS011;55864;49.238;8.092;2022-11-15T04:43:38;14.53;;;6.90;;
68858;SDS011;55864;49.238;8.092;2022-11-15T04:45:58;14.63;;;7.43;;
68858;SDS011;55864;49.238;8.092;2022-11-15T04:48:17;13.38;;;7.45;;
68858;SDS011;55864;49.238;8.092;2022-11-15T04:50:36;12.98;;;7.30;;
68858;SDS011;55864;49.238;8.092;2022-11-15T04:52:55;13.15;;;7.20;;
68858;SDS011;55864;49.238;8.092;2022-11-15T04:55:14;13.73;;;6.90;;
68858;SDS011;55864;49.238;8.092;2022-11-15T04:57:33;12.50;;;7.30;;
68858;SDS011;55864;49.238;8.092;2022-11-15T04:59:52;15.70;;;7.33;;
68858;SDS011;55864;49.238;8.092;2022-11-15T05:02:13;13.13;;;7.57;;
68858;SDS011;55864;49.238;8.092;2022-11-15T05:04:32;16.40;;;7.60;;
68858;SDS011;55864;49.238;8.092;2022-11-15T05:06:51;14.18;;;7.82;;
68858;SDS011;55864;49.238;8.092;2022-11-15T05:09:10;14.20;;;7.97;;
68858;SDS011;55864;49.238;8.092;2022-11-15T05:11:29;14.38;;;7.15;;
68858;SDS011;55864;49.238;8.092;2022-11-15T05:13:48;13.38;;;7.32;;
68858;SDS011;55864;49.238;8.092;2022-11-15T05:16:07;15.27;;;7.72;;
68858;SDS011;55864;49.238;8.092;2022-11-15T05:18:28;14.13;;;6.85;;
68858;SDS011;55864;49.238;8.092;2022-11-15T05:20:46;15.18;;;7.03;;
68858;SDS011;55864;49.238;8.092;2022-11-15T05:23:05;12.20;;;6.63;;
68858;SDS011;55864;49.238;8.092;2022-11-15T05:25:24;12.67;;;6.60;;
68858;SDS011;55864;49.238;8.092;2022-11-15T05:27:44;13.90;;;7.53;;
68858;SDS011;55864;49.238;8.092;2022-11-15T05:30:03;14.57;;;6.53;;
68858;SDS011;55864;49.238;8.092;2022-11-15T05:32:23;11.63;;;6.47;;
68858;SDS011;55864;49.238;8.092;2022-11-15T05:34:44;11.25;;;6.28;;
68858;SDS011;55864;49.238;8.092;2022-11-15T05:37:04;12.02;;;6.47;;
68858;SDS011;55864;49.238;8.092;2022-11-15T05:39:23;14.43;;;7.03;;
68858;SDS011;55864;49.238;8.092;2022-11-15T05:41:43;14.03;;;7.17;;
68858;SDS011;55864;49.238;8.092;2022-11-15T05:44:07;19.33;;;11.05;;
68858;SDS011;55864;49.238;8.092;2022-11-15T05:46:29;16.20;;;9.10;;
68858;SDS011;55864;49.238;8.092;2022-11-15T05:48:49;13.73;;;6.93;;
68858;SDS011;55864;49.238;8.092;2022-11-15T05:51:12;11.77;;;6.53;;
68858;SDS011;55864;49.238;8.092;2022-11-15T05:53:33;13.30;;;6.75;;
68858;SDS011;55864;49.238;8.092;2022-11-15T05:55:54;13.73;;;7.27;;
68858;SDS011;55864;49.238;8.092;2022-11-15T05:58:13;12.38;;;6.72;;
68858;SDS011;55864;49.238;8.092;2022-11-15T06:00:37;12.60;;;6.38;;
68858;SDS011;55864;49.238;8.092;2022-11-15T06:02:56;13.00;;;6.75;;
68858;SDS011;55864;49.238;8.092;2022-11-15T06:05:15;11.20;;;6.85;;
68858;SDS011;55864;49.238;8.092;2022-11-15T06:07:36;13.88;;;8.48;;
68858;SDS011;55864;49.238;8.092;2022-11-15T06:09:54;17.80;;;8.75;;
68858;SDS011;55864;49.238;8.092;2022-11-15T06:12:13;11.63;;;6.60;;
68858;SDS011;55864;49.238;8.092;2022-11-15T06:14:32;11.70;;;6.15;;
68858;SDS011;55864;49.238;8.092;2022-11-15T06:16:52;13.47;;;6.90;;
68858;SDS011;55864;49.238;8.092;2022-11-15T06:19:10;12.40;;;6.97;;
68858;SDS011;55864;49.238;8.092;2022-11-15T06:21:29;15.13;;;7.10;;
68858;SDS011;55864;49.238;8.092;2022-11-15T06:23:53;13.98;;;7.32;;
68858;SDS011;55864;49.238;8.092;2022-11-15T06:26:12;13.70;;;7.60;;
68858;SDS011;55864;49.238;8.092;2022-11-15T06:28:31;15.45;;;7.60;;
68858;SDS011;55864;49.238;8.092;2022-11-15T06:30:51;14.13;;;7.32;;
68858;SDS011;55864;49.238;8.092;2022-11-15T06:33:10;16.53;;;7.53;;
68858;SDS011;55864;49.238;8.092;2022-11-15T06:35:29;15.13;;;7.93;;
68858;SDS011;55864;49.238;8.092;2022-11-15T06:37:51;16.20;;;8.23;;
68858;SDS011;55864;49.238;8.092;2022-11-15T06:40:12;16.57;;;8.97;;
68858;SDS011;55864;49.238;8.092;2022-11-15T06:42:31;17.43;;;9.30;;
68858;SDS011;55864;49.238;8.092;2022-11-15T06:44:52;18.63;;;8.75;;
68858;SDS011;55864;49.238;8.092;2022-11-15T06:47:11;18.48;;;9.13;;
68858;SDS011;55864;49.238;8.092;2022-11-15T06:49:30;16.43;;;8.53;;
68858;SDS011;55864;49.238;8.092;2022-11-15T06:51:49;16.23;;;8.47;;
68858;SDS011;55864;49.238;8.092;2022-11-15T06:54:08;16.03;;;8.60;;
68858;SDS011;55864;49.238;8.092;2022-11-15T06:56:28;16.88;;;7.97;;
68858;SDS011;55864;49.238;8.092;2022-11-15T06:58:47;20.50;;;10.50;;
68858;SDS011;55864;49.238;8.092;2022-11-15T07:01:07;17.47;;;9.00;;
68858;SDS011;55864;49.238;8.092;2022-11-15T07:03:28;18.33;;;8.53;;
68858;SDS011;55864;49.238;8.092;2022-11-15T07:05:50;19.37;;;10.60;;
68858;SDS011;55864;49.238;8.092;2022-11-15T07:08:11;20.05;;;10.95;;
68858;SDS011;55864;49.238;8.092;2022-11-15T07:10:30;25.87;;;13.63;;
68858;SDS011;55864;49.238;8.092;2022-11-15T07:12:50;20.47;;;10.67;;
68858;SDS011;55864;49.238;8.092;2022-11-15T07:15:09;16.23;;;8.50;;
68858;SDS011;55864;49.238;8.092;2022-11-15T07:17:28;15.53;;;8.47;;
68858;SDS011;55864;49.238;8.092;2022-11-15T07:19:47;17.47;;;8.83;;
68858;SDS011;55864;49.238;8.092;2022-11-15T07:22:06;15.37;;;8.20;;
68858;SDS011;55864;49.238;8.092;2022-11-15T07:24:25;16.33;;;8.68;;
68858;SDS011;55864;49.238;8.092;2022-11-15T07:26:44;18.27;;;9.90;;
68858;SDS011;55864;49.238;8.092;2022-11-15T07:29:04;26.07;;;12.77;;
68858;SDS011;55864;49.238;8.092;2022-11-15T07:31:23;24.80;;;12.97;;
68858;SDS011;55864;49.238;8.092;2022-11-15T07:33:42;37.53;;;19.67;;
68858;SDS011;55864;49.238;8.092;2022-11-15T07:36:01;48.78;;;22.80;;
68858;SDS011;55864;49.238;8.092;2022-11-15T07:38:21;75.03;;;34.70;;
68858;SDS011;55864;49.238;8.092;2022-11-15T07:40:43;74.70;;;36.65;;
68858;SDS011;55864;49.238;8.092;2022-11-15T07:43:13;60.38;;;29.17;;
68858;SDS011;55864;49.238;8.092;2022-11-15T07:45:34;45.90;;;23.42;;
68858;SDS011;55864;49.238;8.092;2022-11-15T07:47:59;30.73;;;14.60;;
68858;SDS011;55864;49.238;8.092;2022-11-15T07:50:19;23.88;;;11.18;;
68858;SDS011;55864;49.238;8.092;2022-11-15T07:52:38;20.07;;;9.67;;
68858;SDS011;55864;49.238;8.092;2022-11-15T07:54:57;18.38;;;8.77;;
68858;SDS011;55864;49.238;8.092;2022-11-15T07:57:16;16.38;;;7.95;;
68858;SDS011;55864;49.238;8.092;2022-11-15T07:59:35;15.15;;;7.13;;
68858;SDS011;55864;49.238;8.092;2022-11-15T08:01:55;11.82;;;5.72;;
68858;SDS011;55864;49.238;8.092;2022-11-15T08:04:14;11.38;;;4.68;;
68858;SDS011;55864;49.238;8.092;2022-11-15T08:06:33;15.47;;;6.53;;
68858;SDS011;55864;49.238;8.092;2022-11-15T08:08:52;13.77;;;6.33;;
68858;SDS011;55864;49.238;8.092;2022-11-15T08:11:11;12.02;;;6.18;;
68858;SDS011;55864;49.238;8.092;2022-11-15T08:13:30;12.68;;;6.15;;
68858;SDS011;55864;49.238;8.092;2022-11-15T08:15:49;20.70;;;8.85;;
68858;SDS011;55864;49.238;8.092;2022-11-15T08:18:11;31.58;;;14.45;;
68858;SDS011;55864;49.238;8.092;2022-11-15T08:20:32;24.98;;;11.45;;
68858;SDS011;55864;49.238;8.092;2022-11-15T08:22:53;16.17;;;7.32;;
68858;SDS011;55864;49.238;8.092;2022-11-15T10:51:19;38.38;;;20.33;;
68858;SDS011;55864;49.238;8.092;2022-11-15T10:53:24;21.23;;;10.23;;
68858;SDS011;55864;49.238;8.092;2022-11-15T10:55:30;18.20;;;8.55;;
68858;SDS011;55864;49.238;8.092;2022-11-15T10:57:33;14.10;;;7.70;;
68858;SDS011;55864;49.238;8.092;2022-11-15T10:59:37;16.33;;;7.75;;
68858;SDS011;55864;49.238;8.092;2022-11-15T11:01:45;17.25;;;9.50;;
68858;SDS011;55864;49.238;8.092;2022-11-15T11:03:57;23.27;;;12.10;;
68858;SDS011;55864;49.238;8.092;2022-11-15T11:06:04;17.27;;;9.43;;
68858;SDS011;55864;49.238;8.092;2022-11-15T11:08:19;16.10;;;8.87;;
68858;SDS011;55864;49.238;8.092;2022-11-15T11:10:22;16.48;;;7.55;;
68858;SDS011;55864;49.238;8.092;2022-11-15T11:12:26;14.40;;;8.32;;
68858;SDS011;55864;49.238;8.092;2022-11-15T11:14:29;17.60;;;7.10;;
68858;SDS011;55864;49.238;8.092;2022-11-15T11:18:38;20.75;;;7.13;;
68858;SDS011;55864;49.238;8.092;2022-11-15T11:20:49;16.38;;;6.43;;
68858;SDS011;55864;49.238;8.092;2022-11-15T11:25:39;9.07;;;4.97;;
68858;SDS011;55864;49.238;8.092;2022-11-15T11:27:50;11.10;;;4.90;;
68858;SDS011;55864;49.238;8.092;2022-11-15T11:30:02;9.02;;;4.60;;
68858;SDS011;55864;49.238;8.092;2022-11-15T11:32:11;7.82;;;3.80;;
68858;SDS011;55864;49.238;8.092;2022-11-15T11:34:32;8.65;;;4.10;;
68858;SDS011;55864;49.238;8.092;2022-11-15T11:36:42;8.10;;;4.30;;
68858;SDS011;55864;49.238;8.092;2022-11-15T11:38:56;19.13;;;4.57;;
68858;SDS011;55864;49.238;8.092;2022-11-15T11:41:04;11.80;;;4.07;;
68858;SDS011;55864;49.238;8.092;2022-11-15T11:43:12;8.65;;;3.92;;
68858;SDS011;55864;49.238;8.092;2022-11-15T11:45:24;10.15;;;5.25;;
68858;SDS011;55864;49.238;8.092;2022-11-15T11:47:38;11.35;;;4.18;;
68858;SDS011;55864;49.238;8.092;2022-11-15T11:51:49;7.47;;;3.42;;
68858;SDS011;55864;49.238;8.092;2022-11-15T11:53:54;12.63;;;6.15;;
68858;SDS011;55864;49.238;8.092;2022-11-15T11:56:01;9.75;;;5.20;;
68858;SDS011;55864;49.238;8.092;2022-11-15T11:58:12;9.75;;;4.13;;
68858;SDS011;55864;49.238;8.092;2022-11-15T12:00:17;8.50;;;4.00;;
68858;SDS011;55864;49.238;8.092;2022-11-15T12:02:21;8.25;;;4.10;;
68858;SDS011;55864;49.238;8.092;2022-11-15T12:04:29;8.23;;;4.20;;
68858;SDS011;55864;49.238;8.092;2022-11-15T12:06:33;10.48;;;4.18;;
68858;SDS011;55864;49.238;8.092;2022-11-15T12:08:39;10.77;;;4.15;;
68858;SDS011;55864;49.238;8.092;2022-11-15T12:10:47;7.88;;;4.40;;
68858;SDS011;55864;49.238;8.092;2022-11-15T12:12:55;9.80;;;3.90;;
68858;SDS011;55864;49.238;8.092;2022-11-15T12:15:01;9.10;;;4.00;;
68858;SDS011;55864;49.238;8.092;2022-11-15T12:17:04;8.07;;;3.65;;
68858;SDS011;55864;49.238;8.092;2022-11-15T12:19:04;8.55;;;4.18;;
68858;SDS011;55864;49.238;8.092;2022-11-15T12:21:06;9.82;;;3.50;;
68858;SDS011;55864;49.238;8.092;2022-11-15T12:23:18;7.15;;;3.15;;
68858;SDS011;55864;49.238;8.092;2022-11-15T12:25:23;8.45;;;3.80;;
68858;SDS011;55864;49.238;8.092;2022-11-15T12:27:31;8.05;;;3.70;;
68858;SDS011;55864;49.238;8.092;2022-11-15T12:29:39;13.73;;;3.97;;
68858;SDS011;55864;49.238;8.092;2022-11-15T12:31:44;8.13;;;3.95;;
68858;SDS011;55864;49.238;8.092;2022-11-15T12:33:49;9.43;;;4.40;;
68858;SDS011;55864;49.238;8.092;2022-11-15T12:35:57;9.13;;;4.30;;
68858;SDS011;55864;49.238;8.092;2022-11-15T12:37:59;10.07;;;4.82;;
68858;SDS011;55864;49.238;8.092;2022-11-15T12:40:04;11.00;;;5.00;;
68858;SDS011;55864;49.238;8.092;2022-11-15T12:42:34;11.50;;;4.88;;
68858;SDS011;55864;49.238;8.092;2022-11-15T12:44:59;8.85;;;3.83;;
68858;SDS011;55864;49.238;8.092;2022-11-15T12:47:02;12.48;;;4.90;;
68858;SDS011;55864;49.238;8.092;2022-11-15T12:49:07;8.80;;;4.07;;
68858;SDS011;55864;49.238;8.092;2022-11-15T12:51:10;10.13;;;3.95;;
68858;SDS011;55864;49.238;8.092;2022-11-15T12:53:25;8.50;;;4.18;;
68858;SDS011;55864;49.238;8.092;2022-11-15T12:55:30;8.00;;;3.55;;
68858;SDS011;55864;49.238;8.092;2022-11-15T12:57:33;6.82;;;3.30;;
68858;SDS011;55864;49.238;8.092;2022-11-15T12:59:49;9.75;;;3.53;;
68858;SDS011;55864;49.238;8.092;2022-11-15T13:01:54;12.05;;;4.30;;
68858;SDS011;55864;49.238;8.092;2022-11-15T13:04:07;8.35;;;4.00;;
68858;SDS011;55864;49.238;8.092;2022-11-15T13:06:10;11.13;;;4.60;;
68858;SDS011;55864;49.238;8.092;2022-11-15T13:08:41;14.65;;;4.97;;
68858;SDS011;55864;49.238;8.092;2022-11-15T13:10:44;10.45;;;4.38;;
68858;SDS011;55864;49.238;8.092;2022-11-15T13:12:49;7.80;;;3.45;;
68858;SDS011;55864;49.238;8.092;2022-11-15T13:14:51;7.03;;;3.00;;
68858;SDS011;55864;49.238;8.092;2022-11-15T13:16:58;12.85;;;5.10;;
68858;SDS011;55864;49.238;8.092;2022-11-15T13:18:59;21.60;;;7.97;;
68858;SDS011;55864;49.238;8.092;2022-11-15T13:21:02;12.40;;;4.57;;
68858;SDS011;55864;49.238;8.092;2022-11-15T13:23:07;17.10;;;6.03;;
68858;SDS011;55864;49.238;8.092;2022-11-15T13:25:17;9.43;;;4.22;;
68858;SDS011;55864;49.238;8.092;2022-11-15T13:30:33;8.65;;;3.72;;
68858;SDS011;55864;49.238;8.092;2022-11-15T13:32:34;9.45;;;5.15;;
68858;SDS011;55864;49.238;8.092;2022-11-15T13:34:38;7.75;;;3.10;;
68858;SDS011;55864;49.238;8.092;2022-11-15T13:36:43;6.32;;;3.00;;
68858;SDS011;55864;49.238;8.092;2022-11-15T13:38:44;6.78;;;2.92;;
68858;SDS011;55864;49.238;8.092;2022-11-15T13:40:44;7.20;;;2.90;;
68858;SDS011;55864;49.238;8.092;2022-11-15T13:42:45;6.07;;;2.85;;
68858;SDS011;55864;49.238;8.092;2022-11-15T13:44:54;8.95;;;3.50;;
68858;SDS011;55864;49.238;8.092;2022-11-15T13:47:02;10.73;;;3.03;;
68858;SDS011;55864;49.238;8.092;2022-11-15T13:49:14;8.70;;;3.00;;
68858;SDS011;55864;49.238;8.092;2022-11-15T13:51:16;6.50;;;3.13;;
68858;SDS011;55864;49.238;8.092;2022-11-15T13:53:22;6.40;;;2.97;;
68858;SDS011;55864;49.238;8.092;2022-11-15T13:55:23;6.88;;;3.25;;
68858;SDS011;55864;49.238;8.092;2022-11-15T13:57:25;11.80;;;4.05;;
68858;SDS011;55864;49.238;8.092;2022-11-15T13:59:29;9.45;;;3.63;;
68858;SDS011;55864;49.238;8.092;2022-11-15T14:01:31;9.27;;;3.92;;
68858;SDS011;55864;49.238;8.092;2022-11-15T14:03:32;9.25;;;3.80;;
68858;SDS011;55864;49.238;8.092;2022-11-15T14:05:36;11.95;;;5.32;;
68858;SDS011;55864;49.238;8.092;2022-11-15T14:07:37;8.80;;;4.05;;
68858;SDS011;55864;49.238;8.092;2022-11-15T14:09:38;9.95;;;4.00;;
68858;SDS011;55864;49.238;8.092;2022-11-15T14:11:48;9.00;;;3.75;;
68858;SDS011;55864;49.238;8.092;2022-11-15T14:14:04;7.60;;;3.47;;
68858;SDS011;55864;49.238;8.092;2022-11-15T14:16:13;6.78;;;2.90;;
68858;SDS011;55864;49.238;8.092;2022-11-15T14:20:42;9.98;;;3.45;;
68858;SDS011;55864;49.238;8.092;2022-11-15T14:22:50;9.23;;;4.00;;
68858;SDS011;55864;49.238;8.092;2022-11-15T14:27:18;8.45;;;3.78;;
68858;SDS011;55864;49.238;8.092;2022-11-15T14:29:24;8.65;;;4.03;;
68858;SDS011;55864;49.238;8.092;2022-11-15T14:31:25;9.52;;;3.50;;
68858;SDS011;55864;49.238;8.092;2022-11-15T14:33:27;11.15;;;3.70;;
68858;SDS011;55864;49.238;8.092;2022-11-15T14:35:30;7.80;;;3.47;;
68858;SDS011;55864;49.238;8.092;2022-11-15T14:37:32;6.70;;;2.85;;
68858;SDS011;55864;49.238;8.092;2022-11-15T14:39:33;8.40;;;3.47;;
68858;SDS011;55864;49.238;8.092;2022-11-15T14:41:34;7.78;;;3.38;;
68858;SDS011;55864;49.238;8.092;2022-11-15T14:43:36;7.28;;;3.17;;
68858;SDS011;55864;49.238;8.092;2022-11-15T14:45:36;9.13;;;3.40;;
68858;SDS011;55864;49.238;8.092;2022-11-15T14:47:37;8.25;;;3.30;;
68858;SDS011;55864;49.238;8.092;2022-11-15T14:49:38;7.97;;;3.10;;
68858;SDS011;55864;49.238;8.092;2022-11-15T14:51:38;7.18;;;3.38;;
68858;SDS011;55864;49.238;8.092;2022-11-15T14:53:41;6.88;;;3.25;;
68858;SDS011;55864;49.238;8.092;2022-11-15T14:55:42;7.72;;;2.97;;
68858;SDS011;55864;49.238;8.092;2022-11-15T14:57:42;6.68;;;2.85;;
68858;SDS011;55864;49.238;8.092;2022-11-15T14:59:43;7.90;;;2.95;;
68858;SDS011;55864;49.238;8.092;2022-11-15T15:01:43;9.43;;;3.75;;
68858;SDS011;55864;49.238;8.092;2022-11-15T15:03:44;9.73;;;3.67;;
68858;SDS011;55864;49.238;8.092;2022-11-15T15:05:44;10.82;;;3.90;;
68858;SDS011;55864;49.238;8.092;2022-11-15T15:07:45;11.05;;;3.72;;
68858;SDS011;55864;49.238;8.092;2022-11-15T15:09:48;40.47;;;5.93;;
68858;SDS011;55864;49.238;8.092;2022-11-15T15:11:48;12.88;;;4.47;;
68858;SDS011;55864;49.238;8.092;2022-11-15T15:13:49;14.10;;;4.35;;
68858;SDS011;55864;49.238;8.092;2022-11-15T15:15:50;8.63;;;3.92;;
68858;SDS011;55864;49.238;8.092;2022-11-15T15:17:52;8.98;;;4.05;;
68858;SDS011;55864;49.238;8.092;2022-11-15T15:19:52;10.00;;;4.47;;
68858;SDS011;55864;49.238;8.092;2022-11-15T15:21:53;9.40;;;4.25;;
68858;SDS011;55864;49.238;8.092;2022-11-15T15:23:53;9.70;;;4.35;;
68858;SDS011;55864;49.238;8.092;2022-11-15T15:25:56;9.90;;;3.92;;
68858;SDS011;55864;49.238;8.092;2022-11-15T15:27:57;9.17;;;4.60;;
68858;SDS011;55864;49.238;8.092;2022-11-15T15:29:57;12.93;;;5.22;;
68858;SDS011;55864;49.238;8.092;2022-11-15T15:31:58;15.35;;;7.70;;
68858;SDS011;55864;49.238;8.092;2022-11-15T15:33:58;13.10;;;7.45;;
68858;SDS011;55864;49.238;8.092;2022-11-15T15:35:59;11.50;;;6.15;;
68858;SDS011;55864;49.238;8.092;2022-11-15T15:37:59;13.75;;;6.43;;
68858;SDS011;55864;49.238;8.092;2022-11-15T15:40:01;12.15;;;5.95;;
68858;SDS011;55864;49.238;8.092;2022-11-15T15:42:03;10.68;;;4.90;;
68858;SDS011;55864;49.238;8.092;2022-11-15T15:44:03;11.45;;;4.88;;
68858;SDS011;55864;49.238;8.092;2022-11-15T15:46:04;11.70;;;4.82;;
68858;SDS011;55864;49.238;8.092;2022-11-15T15:48:05;10.00;;;4.35;;
68858;SDS011;55864;49.238;8.092;2022-11-15T15:50:11;10.13;;;4.43;;
68858;SDS011;55864;49.238;8.092;2022-11-15T15:52:19;16.05;;;5.25;;
68858;SDS011;55864;49.238;8.092;2022-11-15T15:54:19;9.20;;;4.63;;
68858;SDS011;55864;49.238;8.092;2022-11-15T15:56:20;10.45;;;4.35;;
68858;SDS011;55864;49.238;8.092;2022-11-15T15:58:22;9.73;;;4.68;;
68858;SDS011;55864;49.238;8.092;2022-11-15T16:00:23;10.00;;;4.40;;
68858;SDS011;55864;49.238;8.092;2022-11-15T16:02:25;9.43;;;4.27;;
68858;SDS011;55864;49.238;8.092;2022-11-15T16:04:25;9.95;;;4.78;;
68858;SDS011;55864;49.238;8.092;2022-11-15T16:06:32;9.15;;;4.85;;
68858;SDS011;55864;49.238;8.092;2022-11-15T16:08:37;9.45;;;5.07;;
68858;SDS011;55864;49.238;8.092;2022-11-15T16:10:38;11.00;;;6.10;;